Aviation Digital Data Service (ADDS)

Output produced by METARs form (1909 UTC 27 July 2016)
found at http://aviationweather.gov/adds/metars/
 
KPBG 271736Z 2718/2818 15010KT P6SM FEW250 
     FM280000 VRB03KT P6SM SCT150 
     FM280800 VRB03KT P6SM SCT070 BKN120 
     FM281200 15006KT P6SM BKN070